Time;durP1;ratioP1;P1;durP2;ratioP2;P2;SDS_P1;SDS_P2;PMS_P1;PMS_P2;Temp;Humidity;BMP_temperature;BMP_pressure;BME280_temperature;BME280_humidity;BME280_pressure;Samples;Min_cycle;Max_cycle;Signal;HPM_P1;HPM_P2
2022/11/23 00:01:09;;;;;;;12.63;4.05;;;9.40;99.90;;;;;;5075817;28;20032;-78
2022/11/23 00:03:35;;;;;;;11.45;4.10;;;9.50;99.90;;;;;;5074712;28;20029;-78
2022/11/23 00:06:01;;;;;;;16.75;4.43;;;9.50;99.90;;;;;;5075605;28;20119;-78
2022/11/23 00:08:27;;;;;;;15.52;4.40;;;9.40;99.90;;;;;;5075784;28;20052;-78
2022/11/23 00:10:56;;;;;;;15.77;4.90;;;9.50;99.90;;;;;;5074292;28;20094;-78
2022/11/23 00:13:22;;;;;;;14.68;4.45;;;9.40;99.90;;;;;;5075147;28;20028;-78
2022/11/23 00:15:47;;;;;;;19.13;4.50;;;9.60;99.90;;;;;;5075779;28;20098;-78
2022/11/23 00:18:14;;;;;;;18.80;6.03;;;9.60;99.90;;;;;;5075428;28;20035;-78
2022/11/23 00:20:40;;;;;;;16.42;4.78;;;9.40;99.90;;;;;;5074134;28;20041;-78
2022/11/23 00:23:05;;;;;;;18.25;5.22;;;9.50;99.90;;;;;;5074522;28;20078;-77
2022/11/23 00:25:31;;;;;;;17.05;5.25;;;9.30;99.90;;;;;;5075087;28;20036;-78
2022/11/23 00:27:57;;;;;;;17.10;5.90;;;9.20;99.90;;;;;;5075534;28;20023;-78
2022/11/23 00:30:23;;;;;;;15.85;5.60;;;9.30;99.90;;;;;;5057162;28;20028;-78
2022/11/23 00:32:48;;;;;;;17.25;5.50;;;9.30;99.90;;;;;;5075323;28;20028;-78
2022/11/23 00:35:14;;;;;;;16.40;5.85;;;9.40;99.90;;;;;;5073924;28;20032;-77
2022/11/23 00:37:40;;;;;;;16.00;5.53;;;9.40;99.90;;;;;;5075211;28;20485;-77
2022/11/23 00:40:06;;;;;;;16.88;6.28;;;9.40;99.90;;;;;;5074881;28;20044;-78
2022/11/23 00:42:32;;;;;;;21.08;6.43;;;9.30;99.90;;;;;;5073922;28;20025;-78
2022/11/23 00:44:59;;;;;;;12.38;4.63;;;9.40;99.90;;;;;;5073759;28;20021;-78
2022/11/23 00:47:24;;;;;;;19.25;5.78;;;9.50;99.90;;;;;;5075512;28;20112;-78
2022/11/23 00:49:50;;;;;;;16.08;4.45;;;9.50;99.90;;;;;;5075017;28;20025;-77
2022/11/23 00:52:16;;;;;;;16.20;4.35;;;9.50;99.90;;;;;;5074983;28;20039;-78
2022/11/23 00:54:42;;;;;;;13.05;4.13;;;9.50;99.90;;;;;;5074641;28;20028;-78
2022/11/23 00:57:08;;;;;;;14.50;3.78;;;9.40;99.90;;;;;;5073568;28;20405;-78
2022/11/23 00:59:34;;;;;;;12.85;4.75;;;9.40;99.90;;;;;;5074439;28;20024;-77
2022/11/23 01:02:00;;;;;;;13.52;4.40;;;9.40;99.90;;;;;;5072652;28;20036;-78
2022/11/23 01:04:26;;;;;;;15.88;3.70;;;9.60;99.90;;;;;;5073514;28;20082;-77
2022/11/23 01:06:56;;;;;;;16.83;4.65;;;9.60;99.90;;;;;;5073479;28;20035;-78
2022/11/23 01:09:25;;;;;;;21.65;4.40;;;9.50;99.90;;;;;;5056375;28;20074;-77
2022/11/23 01:11:52;;;;;;;17.50;3.63;;;9.60;99.90;;;;;;5073385;28;20086;-77
2022/11/23 01:14:21;;;;;;;13.02;3.13;;;9.50;99.90;;;;;;5073421;28;20116;-78
2022/11/23 01:16:48;;;;;;;19.65;4.65;;;9.50;99.90;;;;;;5074539;28;20024;-77
2022/11/23 01:19:16;;;;;;;16.13;3.25;;;9.40;99.90;;;;;;5073218;28;20055;-77
2022/11/23 01:21:43;;;;;;;13.40;2.90;;;9.30;99.90;;;;;;5072992;28;20020;-77
2022/11/23 01:24:13;;;;;;;18.92;4.30;;;9.30;99.90;;;;;;5072937;28;20040;-78
2022/11/23 01:26:39;;;;;;;13.90;4.63;;;9.30;99.90;;;;;;5074317;28;20047;-77
2022/11/23 01:29:05;;;;;;;16.13;3.45;;;9.30;99.90;;;;;;5073015;28;20028;-78
2022/11/23 01:31:31;;;;;;;15.73;4.60;;;9.30;99.90;;;;;;5073096;28;20158;-77
2022/11/23 01:33:59;;;;;;;20.70;4.32;;;9.40;99.90;;;;;;5074153;28;20025;-77
2022/11/23 01:36:28;;;;;;;19.90;4.45;;;9.30;99.90;;;;;;5072403;28;20210;-77
2022/11/23 01:38:54;;;;;;;15.82;3.88;;;9.40;99.90;;;;;;5074006;28;20029;-77
2022/11/23 01:41:26;;;;;;;27.73;4.55;;;9.30;99.90;;;;;;5073915;28;20374;-78
2022/11/23 01:43:53;;;;;;;28.65;4.32;;;9.30;99.90;;;;;;5072782;28;20034;-77
2022/11/23 01:46:19;;;;;;;14.50;3.45;;;9.30;99.90;;;;;;5072680;28;20055;-78
2022/11/23 01:48:57;;;;;;;13.43;3.30;;;9.40;99.90;;;;;;5072788;28;20025;-77
2022/11/23 01:51:27;;;;;;;16.42;4.40;;;9.40;99.90;;;;;;5072287;28;20039;-78
2022/11/23 01:53:56;;;;;;;15.60;4.00;;;9.40;99.90;;;;;;5072467;28;20032;-77
2022/11/23 01:56:34;;;;;;;23.77;3.85;;;9.50;99.90;;;;;;5072569;28;20119;-77
2022/11/23 01:59:04;;;;;;;15.68;3.45;;;9.40;99.90;;;;;;5072471;28;20035;-77
2022/11/23 02:01:29;;;;;;;20.65;4.10;;;9.30;99.90;;;;;;5072178;28;20140;-77
2022/11/23 02:03:59;;;;;;;20.52;4.60;;;9.30;99.90;;;;;;5072468;28;20103;-77
2022/11/23 02:06:24;;;;;;;22.33;4.72;;;9.20;99.90;;;;;;5073050;28;20058;-77
2022/11/23 02:08:51;;;;;;;19.52;4.43;;;9.20;99.90;;;;;;5072290;28;20060;-77
2022/11/23 02:11:19;;;;;;;13.88;3.70;;;9.30;99.90;;;;;;5071763;28;20023;-78
2022/11/23 02:13:49;;;;;;;19.05;3.47;;;9.40;99.90;;;;;;5072097;28;20074;-77
2022/11/23 02:16:15;;;;;;;21.00;4.25;;;9.50;99.90;;;;;;5071948;28;20085;-78
2022/11/23 02:18:46;;;;;;;17.40;3.72;;;9.60;99.90;;;;;;5073292;28;20500;-77
2022/11/23 02:21:12;;;;;;;20.77;4.18;;;9.50;99.90;;;;;;5071510;28;20093;-77
2022/11/23 02:23:59;;;;;;;;;;;9.40;99.90;;;;;;5056477;28;20020;-77
2022/11/23 02:26:31;;;;;;;17.27;3.90;;;9.50;99.90;;;;;;5071813;28;20361;-78
2022/11/23 02:29:09;;;;;;;25.20;4.07;;;9.50;99.90;;;;;;5071879;28;20024;-77
2022/11/23 02:31:35;;;;;;;17.98;3.92;;;9.50;99.90;;;;;;5071726;28;20024;-78
2022/11/23 02:34:01;;;;;;;20.05;4.03;;;9.50;99.90;;;;;;5072951;28;20023;-78
2022/11/23 02:36:35;;;;;;;18.30;3.92;;;9.60;99.90;;;;;;5071388;28;20101;-78
2022/11/23 02:39:12;;;;;;;20.23;4.88;;;9.50;99.90;;;;;;5065380;28;20052;-78
2022/11/23 02:41:42;;;;;;;19.95;4.18;;;9.40;99.90;;;;;;5072016;28;20040;-78
2022/11/23 02:44:19;;;;;;;22.98;4.10;;;9.50;99.90;;;;;;5071392;28;20039;-77
2022/11/23 02:46:45;;;;;;;14.45;3.63;;;9.30;99.90;;;;;;5072590;28;20468;-78
2022/11/23 02:49:10;;;;;;;18.98;4.70;;;9.30;99.90;;;;;;5072231;28;20029;-77
2022/11/23 02:51:36;;;;;;;15.77;4.05;;;9.30;99.90;;;;;;5071542;28;20436;-77
2022/11/23 02:54:02;;;;;;;24.27;3.80;;;9.30;99.90;;;;;;5072829;28;20023;-77
2022/11/23 02:56:28;;;;;;;17.85;3.60;;;9.20;99.90;;;;;;5071278;28;20032;-76
2022/11/23 02:58:54;;;;;;;20.27;4.40;;;9.30;99.90;;;;;;5072828;28;20024;-77
2022/11/23 03:01:20;;;;;;;16.77;3.35;;;9.30;99.90;;;;;;5071374;28;20029;-78
2022/11/23 03:03:46;;;;;;;19.83;3.47;;;9.30;99.90;;;;;;5064295;28;20017;-77
2022/11/23 03:06:11;;;;;;;17.13;3.65;;;9.20;99.90;;;;;;5071148;28;20036;-77
2022/11/23 03:08:37;;;;;;;24.20;4.15;;;9.20;99.90;;;;;;5072495;28;20028;-77
2022/11/23 03:11:03;;;;;;;22.65;4.13;;;9.30;99.90;;;;;;5072600;28;20111;-77
2022/11/23 03:13:30;;;;;;;21.30;3.30;;;9.30;99.90;;;;;;5071236;28;20052;-78
2022/11/23 03:15:58;;;;;;;14.13;3.05;;;9.20;99.90;;;;;;5062131;28;20029;-78
2022/11/23 03:18:26;;;;;;;16.48;3.33;;;9.10;99.90;;;;;;5068894;28;20047;-77
2022/11/23 03:20:52;;;;;;;16.20;4.13;;;9.20;99.90;;;;;;5071358;28;20036;-77
2022/11/23 03:23:18;;;;;;;19.63;3.97;;;9.20;99.90;;;;;;5072357;28;20097;-78
2022/11/23 03:25:44;;;;;;;12.75;3.33;;;9.20;99.90;;;;;;5075402;28;20035;-77
2022/11/23 03:28:11;;;;;;;12.05;2.67;;;9.30;99.90;;;;;;5075211;28;20473;-77
2022/11/23 03:30:37;;;;;;;22.45;5.05;;;9.00;99.90;;;;;;5075414;28;20039;-78
2022/11/23 03:33:05;;;;;;;18.30;3.20;;;9.00;99.90;;;;;;5074852;28;20397;-78
2022/11/23 03:35:31;;;;;;;20.63;3.95;;;9.00;99.90;;;;;;5075055;28;20023;-77
2022/11/23 03:38:21;;;;;;;18.23;3.67;;;9.00;99.90;;;;;;5074847;28;20036;-77
2022/11/23 03:40:47;;;;;;;23.85;4.07;;;9.00;99.90;;;;;;5075114;28;20059;-77
2022/11/23 03:43:20;;;;;;;21.77;4.05;;;9.00;99.90;;;;;;5075108;28;20031;-77
2022/11/23 03:45:46;;;;;;;17.20;3.30;;;8.90;99.90;;;;;;5074854;28;20111;-77
2022/11/23 03:48:13;;;;;;;23.15;3.08;;;9.00;99.90;;;;;;5057901;28;20195;-77
2022/11/23 03:50:39;;;;;;;20.75;3.22;;;9.00;99.90;;;;;;5074973;28;20024;-77
2022/11/23 03:53:05;;;;;;;10.60;2.35;;;9.00;99.90;;;;;;5074804;28;20020;-77
2022/11/23 03:55:32;;;;;;;22.55;3.85;;;9.00;99.90;;;;;;5075134;28;20067;-78
2022/11/23 03:57:58;;;;;;;18.42;3.53;;;9.00;99.90;;;;;;5074719;28;20017;-77
2022/11/23 04:00:26;;;;;;;22.48;3.28;;;8.90;99.90;;;;;;5074631;28;20119;-77
2022/11/23 04:02:52;;;;;;;22.45;2.78;;;9.00;99.90;;;;;;5074332;28;20812;-77
2022/11/23 04:05:44;;;;;;;21.05;3.63;;;9.00;99.90;;;;;;5075701;28;20036;-77
2022/11/23 04:08:39;;;;;;;21.45;2.90;;;9.00;99.90;;;;;;5075700;28;20111;-77
2022/11/23 04:11:10;;;;;;;15.27;3.08;;;9.00;99.90;;;;;;5074480;28;20056;-78
2022/11/23 04:13:37;;;;;;;18.83;2.85;;;9.00;99.90;;;;;;5074465;28;20106;-78
2022/11/23 04:16:03;;;;;;;23.73;3.92;;;9.10;99.90;;;;;;5073902;28;20032;-77
2022/11/23 04:18:29;;;;;;;18.45;3.65;;;8.90;99.90;;;;;;5057759;28;20017;-77
2022/11/23 04:20:55;;;;;;;18.20;3.35;;;9.00;99.90;;;;;;5074277;28;20133;-78
2022/11/23 04:23:21;;;;;;;23.17;4.78;;;9.10;99.90;;;;;;5074253;28;20473;-77
2022/11/23 04:25:48;;;;;;;27.02;3.78;;;9.10;99.90;;;;;;5074203;28;20115;-78
2022/11/23 04:28:14;;;;;;;20.48;3.63;;;9.10;99.90;;;;;;5074164;28;20079;-78
2022/11/23 04:30:41;;;;;;;15.73;3.72;;;8.90;99.90;;;;;;5057402;28;20123;-78
2022/11/23 04:33:07;;;;;;;18.02;3.55;;;9.00;99.90;;;;;;5075219;28;20070;-79
2022/11/23 04:35:35;;;;;;;19.38;4.03;;;8.90;99.90;;;;;;5073909;28;20036;-79
2022/11/23 04:38:01;;;;;;;21.73;3.83;;;8.90;99.90;;;;;;5073930;28;20393;-78
2022/11/23 04:40:30;;;;;;;16.13;2.67;;;8.90;99.90;;;;;;5075039;28;20040;-79
2022/11/23 04:42:59;;;;;;;17.73;3.35;;;8.90;99.90;;;;;;5073951;28;20031;-78
2022/11/23 04:45:25;;;;;;;15.85;3.50;;;8.90;99.90;;;;;;5073255;28;20027;-78
2022/11/23 04:47:53;;;;;;;16.60;3.55;;;8.90;99.90;;;;;;5073972;28;20445;-78
2022/11/23 04:50:22;;;;;;;20.20;3.53;;;8.90;99.90;;;;;;5074941;28;20166;-78
2022/11/23 04:52:52;;;;;;;31.63;3.38;;;8.90;99.90;;;;;;5073590;28;20025;-78
2022/11/23 04:55:22;;;;;;;30.42;4.45;;;8.90;99.90;;;;;;5061406;28;20032;-78
2022/11/23 04:57:56;;;;;;;22.48;4.32;;;8.70;99.90;;;;;;5072817;28;20044;-78
2022/11/23 05:00:25;;;;;;;22.38;3.95;;;8.70;99.90;;;;;;5073343;28;20124;-77
2022/11/23 05:02:53;;;;;;;22.58;3.67;;;8.70;99.90;;;;;;5073641;28;20016;-78
2022/11/23 05:05:23;;;;;;;18.40;3.97;;;8.70;99.90;;;;;;5073652;28;20032;-78
2022/11/23 05:07:49;;;;;;;22.17;5.05;;;8.70;99.90;;;;;;5073458;28;20021;-78
2022/11/23 05:10:18;;;;;;;12.60;2.70;;;8.70;99.90;;;;;;5073170;28;20037;-78
2022/11/23 05:12:45;;;;;;;21.33;3.85;;;8.50;99.90;;;;;;5073316;28;20546;-78
2022/11/23 05:15:13;;;;;;;24.50;3.97;;;8.40;99.90;;;;;;5072956;28;20090;-77
2022/11/23 05:17:40;;;;;;;19.45;4.28;;;8.30;99.90;;;;;;5073411;28;20048;-77
2022/11/23 05:20:12;;;;;;;29.15;3.70;;;8.40;99.90;;;;;;5073094;28;20044;-78
2022/11/23 05:22:43;;;;;;;21.93;3.70;;;8.40;99.90;;;;;;5074090;28;20037;-78
2022/11/23 05:25:13;;;;;;;27.88;3.90;;;8.30;99.90;;;;;;5072885;28;20074;-78
2022/11/23 05:27:39;;;;;;;20.10;3.88;;;8.30;99.90;;;;;;5073172;28;20036;-78
2022/11/23 05:30:06;;;;;;;14.05;3.58;;;8.30;99.90;;;;;;5072467;28;20030;-78
2022/11/23 05:32:32;;;;;;;25.77;4.30;;;8.30;99.90;;;;;;5073001;28;20024;-78
2022/11/23 05:34:59;;;;;;;25.55;3.50;;;8.30;99.90;;;;;;5072760;28;20033;-78
2022/11/23 05:37:28;;;;;;;20.55;4.10;;;8.40;99.90;;;;;;5072650;28;20067;-78
2022/11/23 05:40:01;;;;;;;28.52;5.28;;;8.40;99.90;;;;;;5057139;28;20067;-78
2022/11/23 05:42:29;;;;;;;26.63;3.75;;;8.40;99.90;;;;;;5074028;28;20017;-78
2022/11/23 05:45:01;;;;;;;24.02;4.50;;;8.40;99.90;;;;;;5072388;28;20358;-77
2022/11/23 05:47:36;;;;;;;22.60;4.28;;;8.40;99.90;;;;;;5056687;28;20115;-78
2022/11/23 05:50:06;;;;;;;22.77;4.03;;;8.50;99.90;;;;;;5072654;28;20492;-78
2022/11/23 05:52:32;;;;;;;25.88;4.60;;;8.40;99.90;;;;;;5072367;28;20032;-78
2022/11/23 05:54:58;;;;;;;23.85;4.88;;;8.40;99.90;;;;;;5073795;28;20016;-78
2022/11/23 05:57:24;;;;;;;20.83;4.20;;;8.40;99.90;;;;;;5071952;28;20021;-77
2022/11/23 05:59:51;;;;;;;23.42;4.47;;;8.40;99.90;;;;;;5072656;28;20029;-78
2022/11/23 06:02:21;;;;;;;27.20;3.95;;;8.50;99.90;;;;;;5056405;28;20033;-77
2022/11/23 06:04:51;;;;;;;29.48;3.83;;;8.40;99.90;;;;;;5072352;28;20423;-77
2022/11/23 06:07:23;;;;;;;17.08;3.97;;;8.40;99.90;;;;;;5072269;28;20574;-78
2022/11/23 06:10:04;;;;;;;17.63;2.97;;;8.50;99.90;;;;;;5072523;28;20025;-77
2022/11/23 06:12:32;;;;;;;21.58;4.72;;;8.50;99.90;;;;;;5071654;28;20035;-78
2022/11/23 06:14:58;;;;;;;28.40;4.47;;;8.50;99.90;;;;;;5072567;28;20099;-77
2022/11/23 06:17:26;;;;;;;26.55;4.78;;;8.40;99.90;;;;;;5055799;28;20027;-77
2022/11/23 06:19:55;;;;;;;24.35;3.80;;;8.40;99.90;;;;;;5071950;28;20045;-77
2022/11/23 06:22:22;;;;;;;32.08;4.57;;;8.30;99.90;;;;;;5071971;28;20376;-77
2022/11/23 06:25:08;;;;;;;24.98;4.43;;;8.30;99.90;;;;;;5071829;28;20032;-77
2022/11/23 06:27:50;;;;;;;28.85;4.13;;;8.20;99.90;;;;;;5071622;28;20025;-74
2022/11/23 06:30:22;;;;;;;22.23;3.80;;;8.10;99.90;;;;;;5051524;28;20549;-76
2022/11/23 06:32:48;;;;;;;23.52;4.40;;;8.10;99.90;;;;;;5053204;28;20047;-77
2022/11/23 06:35:15;;;;;;;26.83;4.68;;;8.10;99.90;;;;;;5051932;28;20521;-76
2022/11/23 06:37:43;;;;;;;30.38;5.43;;;8.00;99.90;;;;;;5043777;28;20057;-77
2022/11/23 06:40:10;;;;;;;21.90;4.35;;;8.10;99.90;;;;;;5049267;28;20537;-76
2022/11/23 06:42:36;;;;;;;29.63;4.00;;;7.90;99.90;;;;;;5062132;28;20013;-77
2022/11/23 06:45:03;;;;;;;31.05;5.40;;;7.90;99.90;;;;;;5058377;28;20031;-76
2022/11/23 06:47:30;;;;;;;20.77;4.10;;;8.00;99.90;;;;;;5055270;28;20115;-76
2022/11/23 06:49:57;;;;;;;30.70;5.13;;;7.80;99.90;;;;;;5054633;28;20413;-76
2022/11/23 06:52:27;;;;;;;24.92;4.50;;;7.80;99.90;;;;;;5070548;28;20115;-76
2022/11/23 06:54:53;;;;;;;20.00;3.50;;;7.80;99.90;;;;;;5047650;28;20367;-76
2022/11/23 06:57:20;;;;;;;37.92;4.60;;;7.70;99.90;;;;;;5057363;28;20020;-76
2022/11/23 06:59:47;;;;;;;24.85;4.07;;;7.70;99.90;;;;;;5045250;28;20520;-77
2022/11/23 07:02:14;;;;;;;25.17;3.80;;;7.60;99.90;;;;;;5050009;28;20024;-77
2022/11/23 07:04:40;;;;;;;23.38;4.35;;;7.50;99.90;;;;;;5033887;28;20040;-77
2022/11/23 07:07:12;;;;;;;19.77;4.28;;;7.50;99.90;;;;;;5056552;28;20021;-76
2022/11/23 07:09:45;;;;;;;21.13;4.30;;;7.50;99.90;;;;;;5058459;28;20550;-77
2022/11/23 07:12:21;;;;;;;31.15;4.95;;;7.50;99.90;;;;;;5054528;28;20123;-75
2022/11/23 07:14:47;;;;;;;30.52;4.75;;;7.50;99.90;;;;;;5054161;28;20452;-73
2022/11/23 07:17:13;;;;;;;22.08;4.70;;;7.50;99.90;;;;;;5057033;28;20024;-75
2022/11/23 07:19:40;;;;;;;24.52;3.63;;;7.50;99.90;;;;;;5049158;28;20033;-75
2022/11/23 07:22:05;;;;;;;22.10;4.50;;;7.50;99.90;;;;;;5039461;28;20552;-74
2022/11/23 07:24:31;;;;;;;30.55;4.97;;;7.40;99.90;;;;;;5035576;28;20123;-75
2022/11/23 07:26:57;;;;;;;23.17;3.75;;;7.40;99.90;;;;;;5046068;28;20025;-75
2022/11/23 07:29:23;;;;;;;23.92;3.60;;;7.50;99.90;;;;;;5051462;28;20036;-75
2022/11/23 07:31:50;;;;;;;25.48;3.85;;;7.50;99.90;;;;;;5052543;28;20444;-75
2022/11/23 07:34:16;;;;;;;25.02;4.13;;;7.30;99.90;;;;;;5051588;28;20028;-75
2022/11/23 07:36:42;;;;;;;23.88;4.60;;;7.40;99.90;;;;;;5050523;28;20041;-75
2022/11/23 07:39:09;;;;;;;32.13;4.68;;;7.30;99.90;;;;;;5048841;28;20026;-75
2022/11/23 07:41:35;;;;;;;26.48;4.68;;;7.30;99.90;;;;;;5052751;28;20401;-77
2022/11/23 07:44:07;;;;;;;;;;;7.30;99.90;;;;;;5048712;28;20036;-75
2022/11/23 07:46:33;;;;;;;25.42;4.65;;;7.30;99.90;;;;;;5046791;28;19995;-74
2022/11/23 07:49:01;;;;;;;29.55;5.30;;;7.30;99.90;;;;;;5053267;28;20060;-74
2022/11/23 07:51:28;;;;;;;23.95;4.10;;;7.30;99.90;;;;;;5049875;28;20036;-74
2022/11/23 07:53:53;;;;;;;26.00;4.15;;;7.30;99.90;;;;;;5059605;28;20485;-75
2022/11/23 07:56:19;;;;;;;28.75;4.03;;;7.40;99.90;;;;;;5057437;28;20018;-74
2022/11/23 07:58:45;;;;;;;18.80;4.70;;;7.40;99.90;;;;;;5052839;28;20017;-74
2022/11/23 08:01:18;;;;;;;33.97;4.55;;;7.40;99.90;;;;;;5051590;28;20489;-75
2022/11/23 08:03:44;;;;;;;20.00;4.15;;;7.50;99.90;;;;;;5051556;28;20060;-74
2022/11/23 08:06:11;;;;;;;25.70;4.35;;;7.50;99.90;;;;;;5057654;28;20048;-74
2022/11/23 08:08:38;;;;;;;31.50;4.75;;;7.40;99.90;;;;;;5056518;28;20032;-74
2022/11/23 08:11:05;;;;;;;21.10;4.35;;;7.40;99.90;;;;;;5054865;28;20033;-75
2022/11/23 08:13:33;;;;;;;19.73;4.00;;;7.40;99.90;;;;;;5055567;28;20373;-74
2022/11/23 08:15:59;;;;;;;26.05;3.78;;;7.40;99.90;;;;;;5064911;28;20025;-74
2022/11/23 08:18:26;;;;;;;22.00;4.63;;;7.40;99.90;;;;;;5061075;28;20389;-76
2022/11/23 08:20:52;;;;;;;18.92;3.33;;;7.40;99.90;;;;;;5059923;28;20040;-76
2022/11/23 08:23:19;;;;;;;22.25;3.15;;;7.40;99.90;;;;;;5051421;28;20032;-76
2022/11/23 08:25:45;;;;;;;26.38;4.70;;;7.40;99.90;;;;;;5051004;28;20036;-76
2022/11/23 08:28:11;;;;;;;18.85;4.10;;;7.40;99.90;;;;;;5055365;28;20397;-77
2022/11/23 08:30:37;;;;;;;28.08;4.32;;;7.50;99.90;;;;;;5050887;28;20040;-76
2022/11/23 08:33:05;;;;;;;15.85;3.58;;;7.40;99.90;;;;;;5058293;28;20012;-77
2022/11/23 08:35:38;;;;;;;21.23;4.03;;;7.60;99.90;;;;;;5056088;28;20096;-76
2022/11/23 08:38:05;;;;;;;23.23;5.07;;;7.40;99.90;;;;;;5053359;28;20037;-76
2022/11/23 08:40:32;;;;;;;15.10;3.20;;;7.40;99.90;;;;;;5065951;28;20393;-76
2022/11/23 08:42:57;;;;;;;19.98;4.50;;;7.40;99.90;;;;;;5064922;28;20099;-76
2022/11/23 08:45:23;;;;;;;15.20;2.92;;;7.40;99.90;;;;;;5052982;28;20703;-76
2022/11/23 08:47:49;;;;;;;20.55;4.03;;;7.40;99.90;;;;;;5061933;28;20036;-76
2022/11/23 08:50:16;;;;;;;20.35;4.40;;;7.50;99.90;;;;;;5072971;28;20098;-76
2022/11/23 08:52:42;;;;;;;21.25;3.10;;;7.50;99.90;;;;;;5066765;28;20031;-76
2022/11/23 08:55:08;;;;;;;19.90;3.83;;;7.50;99.90;;;;;;5065629;28;20536;-77
2022/11/23 08:57:34;;;;;;;21.63;4.57;;;7.60;99.90;;;;;;5057815;28;20482;-77
2022/11/23 09:00:00;;;;;;;20.90;4.10;;;7.60;99.90;;;;;;5053646;28;20071;-76
2022/11/23 09:02:26;;;;;;;32.85;4.80;;;7.70;99.90;;;;;;5056863;28;20009;-76
2022/11/23 09:04:52;;;;;;;20.92;4.38;;;7.70;99.90;;;;;;5057665;28;20033;-76
2022/11/23 09:07:17;;;;;;;20.42;4.40;;;7.80;99.90;;;;;;5062476;28;20016;-76
2022/11/23 09:09:43;;;;;;;27.13;3.92;;;7.80;99.90;;;;;;5056666;28;20393;-76
2022/11/23 09:12:09;;;;;;;16.13;4.00;;;7.80;99.90;;;;;;5052895;28;20039;-76
2022/11/23 09:14:35;;;;;;;23.90;4.50;;;7.90;99.90;;;;;;5057219;28;20021;-76
2022/11/23 09:17:01;;;;;;;21.23;4.28;;;7.90;99.90;;;;;;5066879;28;20039;-76
2022/11/23 09:19:27;;;;;;;23.13;3.90;;;7.90;99.90;;;;;;5058327;28;20491;-76
2022/11/23 09:21:53;;;;;;;23.30;4.45;;;8.00;99.90;;;;;;5060639;28;20051;-76
2022/11/23 09:24:19;;;;;;;23.48;5.00;;;8.00;99.90;;;;;;5056238;28;20021;-75
2022/11/23 09:26:45;;;;;;;16.38;4.25;;;8.10;99.90;;;;;;5052354;28;20079;-78
2022/11/23 09:29:11;;;;;;;25.38;4.22;;;8.20;99.90;;;;;;5054427;28;20032;-75
2022/11/23 09:31:37;;;;;;;29.83;4.78;;;8.30;99.90;;;;;;5052680;28;20033;-78
2022/11/23 09:34:03;;;;;;;24.55;4.65;;;8.30;99.90;;;;;;5052910;28;20029;-78
2022/11/23 09:36:29;;;;;;;18.02;3.92;;;8.20;99.90;;;;;;5053569;28;20039;-78
2022/11/23 09:38:55;;;;;;;21.55;3.72;;;8.20;99.90;;;;;;5054122;28;20029;-78
2022/11/23 09:41:43;;;;;;;27.25;3.90;;;8.30;99.90;;;;;;5052560;28;20366;-76
2022/11/23 09:44:32;;;;;;;20.00;4.55;;;8.30;99.90;;;;;;5054168;28;20056;-78
2022/11/23 09:47:24;;;;;;;14.48;3.05;;;8.30;99.90;;;;;;5050374;28;20033;-78
2022/11/23 09:49:58;;;;;;;24.27;3.78;;;8.20;99.90;;;;;;5050616;28;20032;-77
2022/11/23 09:52:24;;;;;;;19.20;3.47;;;8.30;99.90;;;;;;5073690;28;20125;-77
2022/11/23 09:54:55;;;;;;;17.55;4.47;;;8.40;99.90;;;;;;5073846;28;20631;-78
2022/11/23 09:57:25;;;;;;;12.05;2.88;;;8.50;99.90;;;;;;5073480;28;20056;-78
2022/11/23 10:00:00;;;;;;;12.68;3.45;;;8.60;99.90;;;;;;5073581;28;20365;-78
2022/11/23 10:02:27;;;;;;;22.60;3.17;;;8.80;99.90;;;;;;5073769;28;20039;-77
2022/11/23 10:04:56;;;;;;;16.42;3.05;;;8.80;99.90;;;;;;5073690;28;20024;-78
2022/11/23 10:07:31;;;;;;;11.93;3.50;;;8.80;99.90;;;;;;5074460;28;20028;-78
2022/11/23 10:10:08;;;;;;;12.13;3.05;;;8.90;99.90;;;;;;5074057;28;20024;-78
2022/11/23 10:12:58;;;;;;;15.80;3.08;;;8.90;99.90;;;;;;5075635;28;20068;-78
2022/11/23 10:15:31;;;;;;;13.95;2.80;;;8.90;99.90;;;;;;5074785;28;20025;-78
2022/11/23 10:18:20;;;;;;;14.23;3.35;;;8.90;99.90;;;;;;5072811;28;20393;-78
2022/11/23 10:20:49;;;;;;;11.60;2.72;;;8.90;99.90;;;;;;5074521;28;20036;-81
2022/11/23 10:23:39;;;;;;;14.48;2.85;;;9.10;99.90;;;;;;5072223;28;20107;-80
2022/11/23 10:26:19;;;;;;;17.73;3.55;;;9.40;99.90;;;;;;5059624;28;20754;-77
2022/11/23 10:28:46;;;;;;;14.02;3.30;;;9.50;99.90;;;;;;5068759;28;20090;-77
2022/11/23 10:31:20;;;;;;;17.08;3.40;;;9.40;99.90;;;;;;5050055;28;20347;-78
2022/11/23 10:34:01;;;;;;;11.93;2.75;;;9.60;99.90;;;;;;5054289;28;20044;-78
2022/11/23 10:36:26;;;;;;;11.57;3.45;;;10.00;99.90;;;;;;5068866;28;20033;-78
2022/11/23 10:38:58;;;;;;;9.00;2.90;;;10.20;99.90;;;;;;5061907;28;20039;-78
2022/11/23 10:41:24;;;;;;;16.40;2.90;;;10.20;99.90;;;;;;5057810;28;20032;-78
2022/11/23 10:44:08;;;;;;;8.35;3.03;;;10.30;99.90;;;;;;5056202;28;20059;-78
2022/11/23 10:46:34;;;;;;;13.70;2.83;;;10.20;99.90;;;;;;5060673;28;20420;-77
2022/11/23 10:49:13;;;;;;;15.30;3.20;;;10.10;99.90;;;;;;5054726;28;20033;-78
2022/11/23 10:51:39;;;;;;;10.27;2.28;;;10.10;99.90;;;;;;5068142;28;20035;-78
2022/11/23 10:54:27;;;;;;;16.33;3.22;;;10.30;99.90;;;;;;5072656;28;20024;-77
2022/11/23 10:56:54;;;;;;;12.07;2.55;;;10.30;99.90;;;;;;5066834;28;20063;-78
2022/11/23 10:59:26;;;;;;;15.23;3.10;;;10.30;99.90;;;;;;5067364;28;20028;-78
2022/11/23 11:02:12;;;;;;;11.40;2.80;;;10.40;99.90;;;;;;5070361;28;20032;-78
2022/11/23 11:04:38;;;;;;;15.00;3.70;;;10.50;99.90;;;;;;5071753;28;20028;-79
2022/11/23 11:07:30;;;;;;;11.27;2.72;;;10.50;99.90;;;;;;5072014;28;20024;-78
2022/11/23 11:09:57;;;;;;;9.05;2.47;;;10.30;99.90;;;;;;5062004;28;20036;-78
2022/11/23 11:12:24;;;;;;;13.30;2.30;;;10.50;99.90;;;;;;5071723;28;20031;-78
2022/11/23 11:15:13;;;;;;;16.67;2.20;;;10.70;99.90;;;;;;5071555;28;20029;-78
2022/11/23 11:17:40;;;;;;;11.63;2.90;;;10.50;99.90;;;;;;5072006;28;20025;-78
2022/11/23 11:20:26;;;;;;;10.32;2.38;;;10.30;99.90;;;;;;5069605;28;20131;-79
2022/11/23 11:22:54;;;;;;;9.82;2.10;;;10.30;99.90;;;;;;5064579;28;20073;-80
2022/11/23 11:25:34;;;;;;;8.60;2.67;;;10.10;99.90;;;;;;5050900;28;20025;-80
2022/11/23 11:28:02;;;;;;;14.45;3.38;;;10.00;99.90;;;;;;5047899;28;20036;-78
2022/11/23 11:30:41;;;;;;;11.60;2.83;;;10.20;99.90;;;;;;5033356;28;20483;-79
2022/11/23 11:33:31;;;;;;;17.70;2.33;;;10.40;99.90;;;;;;5046944;28;20027;-78
2022/11/23 11:36:01;;;;;;;14.90;2.35;;;10.20;99.90;;;;;;5051688;28;20025;-80
2022/11/23 11:38:32;;;;;;;13.35;2.80;;;10.30;99.90;;;;;;5053384;28;20435;-80
2022/11/23 11:41:07;;;;;;;11.05;2.78;;;10.30;99.90;;;;;;5054606;28;20111;-79
2022/11/23 11:43:47;;;;;;;10.98;2.10;;;10.20;99.90;;;;;;5059747;28;20103;-80
2022/11/23 11:46:19;;;;;;;8.15;2.78;;;10.10;99.90;;;;;;5055393;28;20388;-79
2022/11/23 11:48:53;;;;;;;9.60;2.13;;;10.10;99.90;;;;;;5072610;28;20032;-80
2022/11/23 11:51:28;;;;;;;10.00;2.17;;;10.20;99.90;;;;;;5045412;28;20063;-80
2022/11/23 11:53:59;;;;;;;12.43;2.78;;;10.10;99.90;;;;;;5052076;28;20065;-80
2022/11/23 11:56:43;;;;;;;19.77;2.50;;;10.10;99.90;;;;;;5056227;28;20461;-80
2022/11/23 11:59:33;;;;;;;8.55;2.15;;;10.20;99.90;;;;;;5057919;28;20094;-79
2022/11/23 12:02:18;;;;;;;13.65;3.05;;;10.20;99.90;;;;;;5055087;28;20041;-79
2022/11/23 12:05:02;;;;;;;11.48;1.98;;;10.10;99.90;;;;;;5062920;28;20043;-79
2022/11/23 12:08:03;;;;;;;11.45;2.92;;;10.10;99.90;;;;;;5059072;28;20017;-80
2022/11/23 12:10:39;;;;;;;10.73;2.63;;;10.10;99.90;;;;;;5046886;28;20065;-79
2022/11/23 12:13:37;;;;;;;14.60;2.30;;;10.10;99.90;;;;;;5051684;28;20029;-76
2022/11/23 12:16:24;;;;;;;10.15;2.47;;;10.00;99.90;;;;;;5039484;28;20493;-77
2022/11/23 12:19:10;;;;;;;7.22;2.28;;;10.00;99.90;;;;;;5047439;28;20037;-77
2022/11/23 12:21:44;;;;;;;12.23;2.75;;;9.90;99.90;;;;;;5052828;28;20051;-77
2022/11/23 12:24:29;;;;;;;9.70;2.53;;;9.80;99.90;;;;;;5055212;28;20091;-77
2022/11/23 12:27:07;;;;;;;11.57;2.60;;;9.90;99.90;;;;;;5055305;28;20037;-77
2022/11/23 12:29:55;;;;;;;12.82;3.20;;;9.80;99.90;;;;;;5053503;28;20035;-77
2022/11/23 12:32:53;;;;;;;12.82;2.75;;;9.70;99.90;;;;;;5053994;28;20056;-76
2022/11/23 12:35:25;;;;;;;12.70;2.33;;;9.80;99.90;;;;;;5045837;28;20036;-78
2022/11/23 12:38:15;;;;;;;17.02;3.67;;;9.90;99.90;;;;;;5055142;28;20060;-77
2022/11/23 12:41:03;;;;;;;16.63;3.15;;;9.90;99.90;;;;;;5053852;28;20055;-77
2022/11/23 12:43:58;;;;;;;14.02;3.65;;;9.90;99.90;;;;;;5050971;28;20453;-77
2022/11/23 12:46:42;;;;;;;13.77;3.03;;;9.90;99.90;;;;;;5036058;28;20055;-76
2022/11/23 12:49:50;;;;;;;15.02;3.80;;;9.70;99.90;;;;;;5070503;28;20036;-76
2022/11/23 12:52:46;;;;;;;17.00;2.80;;;9.70;99.90;;;;;;5073659;28;20063;-76
2022/11/23 12:55:18;;;;;;;14.10;3.13;;;9.70;99.90;;;;;;5074965;28;20032;-77
2022/11/23 12:58:05;;;;;;;11.48;2.97;;;9.70;99.90;;;;;;5074872;28;20020;-76
2022/11/23 13:00:36;;;;;;;11.23;3.58;;;9.80;99.90;;;;;;5074820;28;20148;-77
2022/11/23 13:03:28;;;;;;;10.32;3.00;;;9.60;99.90;;;;;;5074608;28;20033;-76